Terminal Aerodrome Forecast
Issued by NWS Portland, OR

Home | Current Version | Previous Version | Text Only | Print | Product List | Glossary On
Versions: 1 2 3 4 5 6 7 8 9 10 11 12 13 14 15 16 17 18 19 20 21 22 23 24 25 26 27 28 29 30 31 32 33 34 35 36 37 38 39
000
FTUS46 KPQR 292140 AAA
TAFTTD
TAF AMD
KTTD 292140Z 2922/3018 VRB05KT P6SM SCT150 BKN250
     FM300000 22006KT P6SM BKN080 OVC150
     FM300400 20010KT P6SM -RA SCT040 OVC080
     FM300530 20013KT P6SM -RA SCT025 OVC040
     FM300700 21010KT P6SM -RA BKN025 OVC040
     FM301500 29007KT P6SM VCSH SCT025 BKN040=

USA.gov is the U.S. government's official web portal to all federal, state and local government web resources and services.